Time;durP1;ratioP1;P1;durP2;ratioP2;P2;SDS_P1;SDS_P2;PMS_P1;PMS_P2;Temp;Humidity;BMP_temperature;BMP_pressure;BME280_temperature;BME280_humidity;BME280_pressure;Samples;Min_cycle;Max_cycle;Signal;HPM_P1;HPM_P2
2022/09/27 00:01:28;;;;;;;;;2.00;1.33;;;;;12.92;65.55;100036.16;5120384;27;45266;-66
2022/09/27 00:03:59;;;;;;;;;2.00;2.00;;;;;12.96;65.70;100042.81;5119923;27;45732;-44
2022/09/27 00:06:27;;;;;;;;;5.33;1.33;;;;;13.01;65.34;100036.94;5119531;27;45555;-61
2022/09/27 00:08:53;;;;;;;;;0.33;0.33;;;;;13.06;65.00;100035.41;5120071;27;45531;-53
2022/09/27 00:11:37;;;;;;;;;3.00;1.00;;;;;12.90;65.29;100009.66;5119831;27;45318;-44
2022/09/27 00:14:04;;;;;;;;;1.00;1.00;;;;;13.10;65.08;100030.50;5120117;27;45275;-66
2022/09/27 00:16:33;;;;;;;;;2.00;0.00;;;;;13.10;64.71;100033.16;5120222;27;45433;-52
2022/09/27 00:19:01;;;;;;;;;3.33;1.00;;;;;13.07;65.05;100036.22;5119654;27;47014;-45
2022/09/27 00:21:27;;;;;;;;;4.00;1.00;;;;;13.03;64.94;100041.09;5119709;27;45471;-58
2022/09/27 00:23:52;;;;;;;;;1.67;1.67;;;;;12.99;64.83;100037.94;5119914;27;45350;-48
2022/09/27 00:26:18;;;;;;;;;3.00;1.00;;;;;12.97;64.86;100031.09;5119216;27;45492;-47
2022/09/27 00:28:43;;;;;;;;;0.00;0.00;;;;;12.90;65.06;100036.34;5119564;27;46205;-40
2022/09/27 00:31:21;;;;;;;;;3.00;2.00;;;;;12.86;65.19;100036.88;5119640;27;45236;-52
2022/09/27 00:33:48;;;;;;;;;1.67;1.67;;;;;12.82;65.97;100052.44;5119455;27;45422;-49
2022/09/27 00:36:13;;;;;;;;;3.00;1.00;;;;;12.80;66.35;100057.09;5119523;27;45442;-58
2022/09/27 00:38:40;;;;;;;;;2.33;1.33;;;;;12.85;66.30;100057.41;5119388;27;46177;-54
2022/09/27 00:41:06;;;;;;;;;3.33;1.00;;;;;12.88;65.86;100058.88;5119259;27;45317;-54
2022/09/27 00:43:52;;;;;;;;;8.00;2.00;;;;;12.94;65.78;100060.84;5119611;27;45385;-57
2022/09/27 00:46:27;;;;;;;;;3.00;1.33;;;;;12.96;66.18;100058.81;5119783;27;45363;-48
2022/09/27 00:49:02;;;;;;;;;1.67;1.00;;;;;12.97;66.87;100057.81;5119285;27;45500;-53
2022/09/27 00:51:29;;;;;;;;;3.00;1.00;;;;;12.98;66.45;100059.50;5119118;27;45316;-58
2022/09/27 00:53:58;;;;;;;;;2.00;1.00;;;;;12.92;66.53;100066.34;5119241;27;45343;-43
2022/09/27 00:56:27;;;;;;;;;1.00;1.00;;;;;12.91;66.84;100063.88;5119495;27;45512;-41
2022/09/27 00:59:01;;;;;;;;;0.33;0.33;;;;;12.80;66.65;100058.94;5119105;27;46681;-44
2022/09/27 01:01:29;;;;;;;;;3.00;2.00;;;;;12.83;65.93;100075.44;5119106;27;45340;-48
2022/09/27 01:04:07;;;;;;;;;1.67;1.00;;;;;12.78;67.37;100071.66;5117947;27;45399;-44
2022/09/27 01:06:34;;;;;;;;;3.67;2.00;;;;;12.72;67.86;100078.50;5119479;27;45374;-45
2022/09/27 01:08:59;;;;;;;;;3.00;1.00;;;;;12.67;67.47;100087.03;5118872;27;45387;-42
2022/09/27 01:11:38;;;;;;;;;2.00;1.67;;;;;12.64;68.20;100079.41;5118848;27;45396;-42
2022/09/27 01:14:10;;;;;;;;;1.00;1.00;;;;;12.61;67.92;100077.09;5119312;27;45493;-42
2022/09/27 01:16:54;;;;;;;;;2.00;1.67;;;;;12.61;67.86;100079.75;5119122;27;45268;-51
2022/09/27 01:19:52;;;;;;;;;5.00;2.00;;;;;12.70;66.77;100078.69;5118387;27;46245;-47
2022/09/27 01:22:48;;;;;;;;;3.33;1.33;;;;;12.71;67.02;100075.00;5100179;27;45359;-47
2022/09/27 01:25:41;;;;;;;;;2.00;2.00;;;;;12.68;66.86;100077.19;5118856;27;45295;-43
2022/09/27 01:28:34;;;;;;;;;1.00;1.00;;;;;12.61;67.40;100081.59;5119018;27;45325;-42
2022/09/27 01:31:13;;;;;;;;;0.67;0.67;;;;;12.57;68.33;100086.44;5117763;27;46909;-52
2022/09/27 01:33:50;;;;;;;;;1.00;1.00;;;;;12.55;68.14;100076.94;5118503;27;45456;-42
2022/09/27 01:36:35;;;;;;;;;1.00;1.00;;;;;12.57;67.74;100083.78;5118569;27;45310;-44
2022/09/27 01:39:19;;;;;;;;;1.67;1.00;;;;;12.59;67.59;100078.25;5118120;27;45443;-47
2022/09/27 01:41:59;;;;;;;;;2.00;1.33;;;;;12.55;68.04;100084.94;5118284;27;45312;-46
2022/09/27 01:44:49;;;;;;;;;0.67;0.67;;;;;12.51;68.00;100087.13;5118529;27;45412;-47
2022/09/27 01:47:19;;;;;;;;;1.33;1.33;;;;;12.49;67.78;100098.00;5118617;27;45373;-43
2022/09/27 01:49:58;;;;;;;;;2.33;2.00;;;;;12.46;67.78;100086.84;5118655;27;45529;-47
2022/09/27 01:52:30;;;;;;;;;4.33;1.33;;;;;12.42;68.31;100082.84;5118157;27;45924;-46
2022/09/27 01:55:00;;;;;;;;;2.00;1.00;;;;;12.40;68.05;100091.03;5118277;27;45330;-48
2022/09/27 01:57:33;;;;;;;;;2.33;1.00;;;;;12.39;68.42;100084.06;5118393;27;45257;-47
2022/09/27 02:00:07;;;;;;;;;1.00;1.00;;;;;12.34;68.29;100080.22;5118642;27;45509;-42
2022/09/27 02:02:37;;;;;;;;;2.00;2.00;;;;;12.34;68.31;100085.56;5118057;27;47196;-43
2022/09/27 02:05:07;;;;;;;;;2.00;1.00;;;;;12.32;68.35;100090.25;5117897;27;45512;-50
2022/09/27 02:07:56;;;;;;;;;2.67;1.00;;;;;12.31;68.70;100097.41;5118143;27;45298;-47
2022/09/27 02:10:25;;;;;;;;;7.00;2.00;;;;;12.29;68.79;100088.75;5118198;27;45429;-53
2022/09/27 02:13:00;;;;;;;;;1.67;1.00;;;;;12.27;68.68;100098.78;5117068;27;45456;-57
2022/09/27 02:15:26;;;;;;;;;3.00;0.00;;;;;12.26;68.23;100091.75;5117827;27;45396;-43
2022/09/27 02:18:00;;;;;;;;;6.00;0.67;;;;;12.24;68.11;100097.28;5117621;27;45570;-42
2022/09/27 02:20:29;;;;;;;;;2.33;1.00;;;;;12.24;68.84;100083.94;5118314;27;45432;-42
2022/09/27 02:23:07;;;;;;;;;3.33;0.00;;;;;12.21;67.95;100075.44;5117855;27;46348;-41
2022/09/27 02:26:01;;;;;;;;;2.00;0.33;;;;;12.22;68.49;100077.97;5117747;27;45420;-45
2022/09/27 02:28:28;;;;;;;;;2.67;1.00;;;;;12.20;68.66;100071.13;5115108;27;45420;-43
2022/09/27 02:30:54;;;;;;;;;3.67;1.00;;;;;12.20;68.92;100079.13;5118061;27;45307;-54
2022/09/27 02:33:25;;;;;;;;;2.00;0.33;;;;;12.19;68.99;100078.31;5117875;27;45332;-43
2022/09/27 02:35:50;;;;;;;;;1.00;1.00;;;;;12.09;68.73;100056.31;5117779;27;45364;-42
2022/09/27 02:38:16;;;;;;;;;2.67;1.00;;;;;12.17;68.48;100071.47;5117904;27;45215;-41
2022/09/27 02:40:44;;;;;;;;;2.67;1.00;;;;;12.17;69.04;100076.81;5118369;27;45476;-41
2022/09/27 02:43:12;;;;;;;;;0.00;0.00;;;;;12.13;68.94;100078.97;5117635;27;46010;-41
2022/09/27 02:46:15;;;;;;;;;2.00;0.33;;;;;12.15;68.61;100087.66;5117786;27;45319;-43
2022/09/27 02:48:52;;;;;;;;;0.33;0.00;;;;;12.16;68.79;100083.13;5118231;27;45447;-44
2022/09/27 02:51:40;;;;;;;;;5.00;1.00;;;;;12.15;68.67;100081.50;5121633;27;45298;-43
2022/09/27 02:54:21;;;;;;;;;2.00;2.00;;;;;12.14;69.39;100085.16;5121144;27;47195;-45
2022/09/27 02:56:59;;;;;;;;;1.67;0.00;;;;;12.14;68.91;100079.84;5121046;27;45370;-42
2022/09/27 02:59:40;;;;;;;;;0.00;0.00;;;;;12.14;68.23;100080.66;5121395;27;45221;-44
2022/09/27 03:02:14;;;;;;;;;2.67;1.00;;;;;12.15;69.37;100076.97;5120678;27;45549;-42
2022/09/27 03:04:47;;;;;;;;;1.00;1.00;;;;;12.14;69.45;100083.31;5120774;27;45967;-44
2022/09/27 03:07:13;;;;;;;;;3.33;1.00;;;;;12.16;70.12;100085.81;5121175;27;45390;-43
2022/09/27 03:09:45;;;;;;;;;2.67;1.00;;;;;12.18;69.10;100083.81;5121004;27;45412;-48
2022/09/27 03:12:11;;;;;;;;;0.67;0.67;;;;;12.22;69.44;100077.97;5121120;27;45374;-43
2022/09/27 03:14:36;;;;;;;;;1.33;1.00;;;;;12.23;69.68;100068.94;5102467;27;47299;-43
2022/09/27 03:17:01;;;;;;;;;1.00;1.00;;;;;12.27;69.34;100073.94;5120693;27;45421;-43
2022/09/27 03:19:27;;;;;;;;;1.00;1.00;;;;;12.32;69.94;100083.06;5120913;27;45388;-49
2022/09/27 03:21:52;;;;;;;;;0.00;0.00;;;;;12.35;69.74;100068.56;5121239;27;45223;-46
2022/09/27 03:24:17;;;;;;;;;0.00;0.00;;;;;12.40;69.10;100082.22;5120583;27;45407;-47
2022/09/27 03:26:43;;;;;;;;;2.33;1.00;;;;;12.43;69.58;100080.03;5120738;27;45286;-42
2022/09/27 03:29:08;;;;;;;;;2.67;0.00;;;;;12.49;69.78;100094.50;5120897;27;45343;-42
2022/09/27 03:31:33;;;;;;;;;1.00;1.00;;;;;12.54;69.77;100084.13;5120854;27;45512;-51
2022/09/27 03:33:59;;;;;;;;;2.00;1.00;;;;;12.57;70.31;100086.44;5120380;27;46027;-41
2022/09/27 03:36:24;;;;;;;;;1.00;1.00;;;;;12.59;69.90;100086.25;5120394;27;45240;-41
2022/09/27 03:38:49;;;;;;;;;4.33;0.33;;;;;12.58;70.35;100082.75;5120920;27;45400;-50
2022/09/27 03:41:15;;;;;;;;;0.00;0.00;;;;;12.59;70.19;100083.59;5120557;27;45343;-51
2022/09/27 03:43:40;;;;;;;;;0.67;0.67;;;;;12.60;71.66;100079.91;5120346;27;46254;-48
2022/09/27 03:46:06;;;;;;;;;1.00;1.00;;;;;12.60;71.76;100087.91;5118974;27;45397;-43
2022/09/27 03:48:31;;;;;;;;;2.33;1.00;;;;;12.58;71.60;100088.09;5120330;27;45287;-55
2022/09/27 03:50:56;;;;;;;;;1.33;0.00;;;;;12.46;71.26;100054.81;5102283;27;45549;-47
2022/09/27 03:53:22;;;;;;;;;2.33;1.00;;;;;12.58;70.65;100088.09;5120444;27;45368;-44
2022/09/27 03:55:47;;;;;;;;;2.67;2.00;;;;;12.55;71.91;100082.28;5120140;27;45397;-53
2022/09/27 03:58:13;;;;;;;;;1.00;1.00;;;;;12.51;71.82;100072.97;5120501;27;45745;-51
2022/09/27 04:00:40;;;;;;;;;1.33;0.33;;;;;12.44;72.04;100088.84;5119382;27;45433;-47
2022/09/27 04:03:05;;;;;;;;;1.67;1.00;;;;;12.37;71.99;100079.88;5119983;27;46128;-59
2022/09/27 04:05:31;;;;;;;;;0.67;0.67;;;;;12.33;72.29;100068.72;5119859;27;45353;-57
2022/09/27 04:07:57;;;;;;;;;1.00;1.00;;;;;12.33;72.07;100074.06;5120288;27;45352;-54
2022/09/27 04:10:22;;;;;;;;;1.00;1.00;;;;;12.30;71.63;100071.72;5120704;27;45429;-46
2022/09/27 04:12:48;;;;;;;;;4.67;1.00;;;;;12.23;71.83;100058.28;5119897;27;47063;-63
2022/09/27 04:15:13;;;;;;;;;3.67;1.00;;;;;12.19;71.97;100062.31;5120094;27;45302;-58
2022/09/27 04:17:42;;;;;;;;;2.33;1.00;;;;;12.14;72.14;100066.50;5120097;27;46036;-62
2022/09/27 04:20:09;;;;;;;;;2.33;1.00;;;;;12.10;71.91;100060.69;5119287;27;45432;-59
2022/09/27 04:22:39;;;;;;;;;2.00;1.00;;;;;12.06;72.02;100059.38;5119862;27;46176;-47
2022/09/27 04:25:05;;;;;;;;;0.33;0.33;;;;;12.07;72.55;100057.53;5119574;27;45366;-49
2022/09/27 04:27:30;;;;;;;;;2.00;0.67;;;;;12.06;71.98;100064.69;5120027;27;45381;-58
2022/09/27 04:29:56;;;;;;;;;1.00;1.00;;;;;12.01;72.38;100053.72;5101537;27;45337;-45
2022/09/27 04:32:21;;;;;;;;;3.67;0.67;;;;;11.97;72.36;100049.75;5119415;27;46984;-47
2022/09/27 04:37:32;;;;;;;;;2.00;1.00;;;;;11.96;72.72;100040.88;5056107;28;45544;-53
2022/09/27 04:39:57;;;;;;;;;2.00;0.00;;;;;12.04;72.69;100056.03;5056234;28;45514;-43
2022/09/27 04:42:23;;;;;;;;;1.00;1.00;;;;;12.07;72.25;100054.84;5055702;28;46995;-57
2022/09/27 04:44:48;;;;;;;;;5.00;1.00;;;;;12.07;72.15;100053.03;5056020;28;45425;-45
2022/09/27 04:47:14;;;;;;;;;1.00;1.00;;;;;12.10;72.29;100050.03;5054993;28;45380;-60
2022/09/27 04:49:39;;;;;;;;;2.00;0.00;;;;;12.12;71.38;100053.31;5038920;28;45507;-58
2022/09/27 04:52:04;;;;;;;;;0.00;0.00;;;;;12.14;72.53;100055.84;5055905;28;46104;-50
2022/09/27 04:54:30;;;;;;;;;4.00;1.00;;;;;12.12;72.00;100056.00;5055374;28;45399;-56
2022/09/27 04:56:56;;;;;;;;;1.33;1.33;;;;;12.11;72.46;100045.50;5055752;28;45454;-58
2022/09/27 04:59:21;;;;;;;;;1.00;0.00;;;;;12.15;71.52;100049.50;5056008;28;45465;-51
2022/09/27 05:01:46;;;;;;;;;2.67;0.33;;;;;12.17;72.28;100061.63;5055712;28;45837;-56
2022/09/27 05:04:12;;;;;;;;;2.00;0.33;;;;;12.19;72.04;100058.81;5055768;28;45362;-61
2022/09/27 05:06:37;;;;;;;;;0.00;0.00;;;;;12.22;71.51;100055.81;5055676;28;45319;-46
2022/09/27 05:09:02;;;;;;;;;1.00;1.00;;;;;12.24;72.15;100059.09;5056086;28;45661;-58
2022/09/27 05:11:28;;;;;;;;;0.67;0.67;;;;;12.24;71.81;100053.78;5056789;28;45519;-54
2022/09/27 05:13:53;;;;;;;;;1.00;1.00;;;;;12.28;72.00;100063.09;5065449;27;45333;-43
2022/09/27 05:16:19;;;;;;;;;0.00;0.00;;;;;12.31;72.42;100067.25;5100866;27;45437;-55
2022/09/27 05:18:44;;;;;;;;;2.33;1.00;;;;;12.35;72.06;100073.91;5100225;27;45425;-54
2022/09/27 05:21:10;;;;;;;;;2.00;1.00;;;;;12.39;72.46;100067.22;5101688;27;47313;-66
2022/09/27 05:23:36;;;;;;;;;0.00;0.00;;;;;12.39;71.58;100065.38;5099296;27;45330;-43
2022/09/27 05:26:06;;;;;;;;;1.00;1.00;;;;;12.42;72.46;100050.84;5100832;27;45468;-62
2022/09/27 05:28:33;;;;;;;;;4.00;2.00;;;;;12.41;72.13;100059.84;5099455;27;45378;-52
2022/09/27 05:31:00;;;;;;;;;2.33;1.00;;;;;12.41;72.33;100063.34;5098372;27;45309;-55
2022/09/27 05:33:25;;;;;;;;;2.33;1.00;;;;;12.34;72.63;100049.03;5098443;27;45346;-68
2022/09/27 05:35:54;;;;;;;;;1.67;1.67;;;;;12.40;72.05;100061.69;5098238;27;45295;-65
2022/09/27 05:38:21;;;;;;;;;1.00;1.00;;;;;12.36;71.67;100063.06;5098617;27;45244;-65
2022/09/27 05:40:49;;;;;;;;;4.00;2.00;;;;;12.34;72.71;100067.72;5097827;27;46999;-63
2022/09/27 05:43:14;;;;;;;;;3.33;2.00;;;;;12.27;72.46;100073.94;5098951;27;45347;-63
2022/09/27 05:45:41;;;;;;;;;3.00;1.00;;;;;12.21;73.11;100076.28;5118695;27;45401;-69
2022/09/27 05:48:07;;;;;;;;;3.67;3.00;;;;;12.19;73.81;100078.31;5118885;27;45421;-69
2022/09/27 05:50:33;;;;;;;;;2.67;1.33;;;;;12.18;74.02;100084.66;5118215;27;45466;-66
2022/09/27 05:52:58;;;;;;;;;7.00;3.00;;;;;12.18;73.32;100070.50;5118347;27;45264;-57
2022/09/27 05:55:23;;;;;;;;;1.00;1.00;;;;;12.12;74.75;100057.84;5118592;27;45402;-55
2022/09/27 05:58:00;;;;;;;;;3.00;1.00;;;;;12.22;74.40;100072.63;5119036;27;45424;-61
2022/09/27 06:00:27;;;;;;;;;3.00;1.00;;;;;12.30;73.63;100063.72;5118222;27;46372;-66
2022/09/27 06:03:00;;;;;;;;;1.00;1.00;;;;;12.34;72.73;100057.03;5118124;27;45362;-66
2022/09/27 06:05:27;;;;;;;;;1.00;1.00;;;;;12.34;72.69;100054.38;5118334;27;45346;-67
2022/09/27 06:07:59;;;;;;;;;3.00;1.00;;;;;12.47;73.02;100053.81;5118445;27;45180;-67
2022/09/27 06:10:25;;;;;;;;;1.00;0.67;;;;;12.51;73.00;100036.44;5118171;27;46951;-60
2022/09/27 06:12:51;;;;;;;;;1.00;1.00;;;;;12.59;72.33;100046.25;5118276;27;45323;-61
2022/09/27 06:15:16;;;;;;;;;3.00;1.00;;;;;12.62;71.64;100048.56;5118298;27;45181;-46
2022/09/27 06:17:42;;;;;;;;;3.00;0.67;;;;;12.63;71.76;100051.03;5119544;27;45214;-52
2022/09/27 06:20:08;;;;;;;;;0.67;0.33;;;;;12.63;71.28;100055.56;5119042;27;45493;-46
2022/09/27 06:22:35;;;;;;;;;3.00;3.00;;;;;12.65;71.60;100069.56;5119743;27;45350;-43
2022/09/27 06:25:02;;;;;;;;;1.00;1.00;;;;;12.64;71.42;100070.53;5121170;27;45350;-43
2022/09/27 06:27:28;;;;;;;;;2.33;1.33;;;;;12.64;71.33;100060.72;5122056;27;45378;-43
2022/09/27 06:29:54;;;;;;;;;1.00;1.00;;;;;12.67;71.16;100063.03;5121523;27;46243;-62
2022/09/27 06:32:20;;;;;;;;;1.00;1.00;;;;;12.70;71.63;100062.69;5117190;27;45339;-43
2022/09/27 06:34:45;;;;;;;;;3.00;1.00;;;;;12.78;71.49;100052.97;5101325;27;45346;-45
2022/09/27 06:37:11;;;;;;;;;0.00;0.00;;;;;12.84;71.33;100057.56;5115834;27;45382;-43
2022/09/27 06:39:36;;;;;;;;;0.67;0.67;;;;;12.88;70.55;100056.22;5111061;27;46882;-43
2022/09/27 06:42:02;;;;;;;;;2.00;0.00;;;;;12.78;70.73;100051.13;5109463;27;45581;-63
2022/09/27 06:44:27;;;;;;;;;3.00;1.33;;;;;12.88;70.81;100065.03;5117743;27;45309;-44
2022/09/27 06:46:53;;;;;;;;;1.67;1.00;;;;;12.85;71.31;100052.06;5115576;27;45434;-47
2022/09/27 06:49:21;;;;;;;;;1.00;1.00;;;;;12.88;71.13;100056.22;5099559;27;46652;-45
2022/09/27 06:51:47;;;;;;;;;1.33;1.33;;;;;12.89;71.12;100057.88;5108421;27;45622;-64
2022/09/27 06:54:12;;;;;;;;;0.67;0.33;;;;;12.83;70.56;100047.91;5112074;27;45488;-68
2022/09/27 06:56:37;;;;;;;;;3.00;1.00;;;;;12.92;70.67;100062.84;5099550;27;45397;-69
2022/09/27 07:01:47;;;;;;;;;1.67;0.67;;;;;13.01;70.54;100056.44;5099287;27;45536;-65
2022/09/27 07:04:12;;;;;;;;;1.00;1.00;;;;;13.07;70.07;100054.91;5105748;27;45456;-59
2022/09/27 07:06:37;;;;;;;;;1.00;1.00;;;;;13.09;69.91;100059.03;5099590;27;45403;-68
2022/09/27 07:09:05;;;;;;;;;2.00;1.00;;;;;13.10;70.09;100074.03;5098716;27;45662;-68
2022/09/27 07:11:35;;;;;;;;;1.00;1.00;;;;;13.11;70.33;100070.38;5100091;27;45382;-67
2022/09/27 07:14:03;;;;;;;;;2.00;0.00;;;;;13.13;69.52;100076.38;5100491;27;45542;-65
2022/09/27 07:16:29;;;;;;;;;2.33;1.00;;;;;13.11;69.60;100089.09;5100794;27;45378;-66
2022/09/27 07:18:54;;;;;;;;;2.67;1.00;;;;;13.17;69.37;100076.84;5094556;27;45419;-62
2022/09/27 07:21:19;;;;;;;;;2.67;1.00;;;;;13.25;69.68;100086.66;5097177;27;45676;-69
2022/09/27 07:23:45;;;;;;;;;3.00;1.33;;;;;13.20;69.38;100081.84;5097321;27;45495;-60
2022/09/27 07:26:11;;;;;;;;;2.33;1.00;;;;;13.31;69.27;100085.94;5090545;27;45464;-63
2022/09/27 07:28:39;;;;;;;;;0.33;0.33;;;;;13.33;69.26;100092.75;5117305;27;47051;-66
2022/09/27 07:31:04;;;;;;;;;1.67;0.67;;;;;13.40;69.42;100100.88;5118172;27;45472;-68
2022/09/27 07:33:30;;;;;;;;;3.33;2.00;;;;;13.42;69.30;100101.53;5103462;27;45465;-62
2022/09/27 07:35:56;;;;;;;;;1.00;1.00;;;;;13.51;69.30;100097.78;5106433;27;45461;-68
2022/09/27 07:38:21;;;;;;;;;1.00;1.00;;;;;13.60;68.64;100104.69;5118236;27;45425;-65
2022/09/27 07:40:47;;;;;;;;;1.00;1.00;;;;;13.59;68.68;100108.38;5098953;27;45479;-47
2022/09/27 07:43:12;;;;;;;;;3.00;1.33;;;;;13.67;68.43;100115.50;5098572;27;45735;-63
2022/09/27 07:45:38;;;;;;;;;0.00;0.00;;;;;13.70;67.91;100110.63;5098873;27;45548;-66
2022/09/27 07:48:09;;;;;;;;;1.00;1.00;;;;;13.80;67.64;100117.53;5098762;27;46224;-49
2022/09/27 07:50:35;;;;;;;;;2.67;1.67;;;;;13.95;67.59;100115.72;5098358;27;45465;-41
2022/09/27 07:53:00;;;;;;;;;0.00;0.00;;;;;14.05;67.29;100100.22;5098408;27;45371;-58
2022/09/27 07:55:26;;;;;;;;;1.67;1.00;;;;;14.18;66.63;100115.63;5099022;27;45402;-53
2022/09/27 07:57:52;;;;;;;;;1.00;1.00;;;;;14.51;66.18;100115.25;5113754;27;46382;-57
2022/09/27 08:00:20;;;;;;;;;6.67;3.00;;;;;14.85;65.51;100123.47;5118535;27;45346;-45
2022/09/27 08:02:46;;;;;;;;;1.33;1.33;;;;;15.15;64.54;100121.50;5118637;27;45452;-55
2022/09/27 08:05:12;;;;;;;;;3.00;1.67;;;;;15.27;63.93;100115.63;5118320;27;45416;-68
2022/09/27 08:07:39;;;;;;;;;5.00;3.00;;;;;15.44;63.31;100109.78;5118150;27;47551;-66
2022/09/27 08:10:06;;;;;;;;;1.33;1.00;;;;;15.68;62.88;100135.38;5100489;27;45490;-70
2022/09/27 08:12:32;;;;;;;;;1.67;1.00;;;;;15.60;62.54;100132.81;5098224;27;45516;-57
2022/09/27 08:15:00;;;;;;;;;2.00;0.67;;;;;15.60;62.35;100145.41;5103929;27;45840;-71
2022/09/27 08:17:26;;;;;;;;;1.00;1.00;;;;;15.53;62.63;100139.97;5111086;27;46235;-64
2022/09/27 08:19:52;;;;;;;;;1.67;1.00;;;;;15.45;62.63;100142.78;5117977;27;45428;-64
2022/09/27 08:22:20;;;;;;;;;5.33;2.67;;;;;15.30;62.86;100132.16;5118119;27;45466;-42
2022/09/27 08:24:46;;;;;;;;;1.67;1.67;;;;;15.24;62.94;100130.22;5118108;27;45555;-46
2022/09/27 08:27:12;;;;;;;;;3.00;1.00;;;;;15.18;62.70;100141.72;5117714;27;47497;-48
2022/09/27 08:29:40;;;;;;;;;2.33;2.33;;;;;15.20;63.29;100150.38;5118005;27;45635;-48
2022/09/27 08:32:06;;;;;;;;;1.67;1.67;;;;;15.28;62.97;100142.22;5117975;27;45397;-44
2022/09/27 08:34:32;;;;;;;;;2.00;1.00;;;;;15.27;62.80;100145.09;5118651;27;45366;-48
2022/09/27 08:36:58;;;;;;;;;1.33;1.00;;;;;15.32;62.50;100145.34;5101102;27;46009;-43
2022/09/27 08:39:23;;;;;;;;;2.00;2.00;;;;;15.43;62.41;100152.88;5106331;27;45466;-52
2022/09/27 08:42:12;;;;;;;;;1.33;1.33;;;;;15.48;62.75;100153.97;5118040;27;45426;-62
2022/09/27 08:44:43;;;;;;;;;4.00;2.00;;;;;15.38;62.05;100150.78;4996940;28;45663;-64
2022/09/27 08:47:40;;;;;;;;;4.00;2.00;;;;;15.24;62.11;100154.34;4993765;28;46382;-62
2022/09/27 08:50:28;;;;;;;;;3.00;1.00;;;;;15.15;62.41;100163.53;4989033;28;45598;-51
2022/09/27 08:53:04;;;;;;;;;2.67;2.33;;;;;15.19;62.65;100176.34;5002312;28;46019;-63
2022/09/27 08:55:37;;;;;;;;;2.00;2.00;;;;;15.19;62.78;100168.31;4994904;28;45503;-57
2022/09/27 08:58:12;;;;;;;;;1.00;0.67;;;;;15.14;62.46;100168.06;4994244;28;47386;-53
2022/09/27 09:00:38;;;;;;;;;0.67;0.67;;;;;15.22;62.35;100165.25;4993814;28;45649;-59
2022/09/27 09:03:03;;;;;;;;;3.00;1.00;;;;;15.24;61.63;100157.03;4994145;28;45294;-52
2022/09/27 09:05:34;;;;;;;;;3.00;2.00;;;;;15.23;62.13;100158.06;4994337;28;46499;-55
2022/09/27 09:08:11;;;;;;;;;2.00;1.33;;;;;15.26;62.13;100157.69;4993814;28;47065;-60
2022/09/27 09:13:50;;;;;;;;;1.33;0.00;;;;;15.30;61.72;100150.09;5008545;28;45432;-42
2022/09/27 09:16:57;;;;;;;;;2.00;1.00;;;;;15.31;61.71;100157.09;5013744;28;45679;-42
2022/09/27 09:19:40;;;;;;;;;2.00;0.67;;;;;15.29;61.19;100170.66;4974442;28;47483;-61
2022/09/27 09:22:30;;;;;;;;;1.00;1.00;;;;;15.25;61.66;100165.88;5000813;28;45409;-47
2022/09/27 09:25:19;;;;;;;;;2.33;1.00;;;;;15.30;61.98;100152.78;5013788;28;45841;-47
2022/09/27 09:27:58;;;;;;;;;2.33;1.00;;;;;15.29;61.81;100162.63;5014194;28;45477;-52
2022/09/27 09:30:45;;;;;;;;;2.67;1.00;;;;;15.77;61.87;100164.75;5028361;28;45586;-55
2022/09/27 09:33:21;;;;;;;;;3.00;1.00;;;;;15.86;60.61;100140.25;5032876;28;45564;-43
2022/09/27 09:36:00;;;;;;;;;2.67;1.67;;;;;16.44;59.91;100137.28;5033058;28;45562;-45
2022/09/27 09:38:48;;;;;;;;;2.00;2.00;;;;;17.11;57.69;100139.19;5032719;28;45416;-42
2022/09/27 09:41:55;;;;;;;;;4.67;2.00;;;;;18.01;56.06;100131.56;5032454;28;47102;-49
2022/09/27 09:44:32;;;;;;;;;1.33;1.33;;;;;18.38;54.67;100130.00;5031616;28;45540;-45
2022/09/27 09:47:01;;;;;;;;;4.00;2.00;;;;;18.38;54.26;100115.72;5025766;28;45387;-44
2022/09/27 09:49:27;;;;;;;;;3.00;1.00;;;;;18.76;53.23;100120.34;5033728;28;45632;-52
2022/09/27 09:52:00;;;;;;;;;6.00;2.00;;;;;20.33;51.20;100115.72;5032499;28;46721;-43
2022/09/27 09:54:32;;;;;;;;;3.00;3.00;;;;;21.48;49.05;100112.06;5033132;28;45457;-50
2022/09/27 09:57:09;;;;;;;;;5.50;2.50;;;;;22.66;46.28;100105.44;5076214;27;45498;-53
2022/09/27 09:59:40;;;;;;;;;1.75;1.75;;;;;;;;5095281;27;45529;-42
2022/09/27 10:02:25;;;;;;;;;3.75;2.00;;;;;23.91;42.45;100098.09;5096323;27;46294;-44
2022/09/27 10:04:50;;;;;;;;;3.20;1.60;;;;;23.30;43.12;100073.53;5095759;27;45569;-41
2022/09/27 10:07:22;;;;;;;;;2.00;1.00;;;;;22.78;43.22;100072.88;5096093;27;45567;-44
2022/09/27 10:09:48;;;;;;;;;1.00;0.80;;;;;22.36;46.89;100084.81;5095977;27;45393;-57
2022/09/27 10:12:14;;;;;;;;;1.00;0.80;;;;;21.79;43.75;100081.94;5095490;27;45495;-68
2022/09/27 10:14:41;;;;;;;;;0.75;0.75;;;;;21.68;44.39;100082.75;5077762;27;45453;-44
2022/09/27 10:17:13;;;;;;;;;2.00;0.00;;;;;21.93;44.48;100077.91;5095574;27;45448;-42
2022/09/27 10:19:40;;;;;;;;;1.00;1.00;;;;;21.90;43.07;100072.97;5095962;27;45432;-44
2022/09/27 10:22:29;;;;;;;;;3.75;3.00;;;;;22.15;43.16;100070.00;5075667;27;46270;-41
2022/09/27 10:25:01;;;;;;;;;1.60;1.60;;;;;22.08;42.40;100069.31;5075263;27;45419;-43
2022/09/27 10:27:36;;;;;;;;;5.50;3.00;;;;;21.80;42.90;100067.34;5088362;27;45510;-46
2022/09/27 10:30:03;;;;;;;;;0.50;0.50;;;;;21.60;43.46;100067.69;5096273;27;45465;-54
2022/09/27 10:32:34;;;;;;;;;3.00;1.25;;;;;21.52;42.74;100054.53;5094140;27;46240;-43
2022/09/27 10:35:33;;;;;;;;;2.40;2.00;;;;;21.04;45.44;100066.31;5076455;28;45433;-51
2022/09/27 10:38:17;;;;;;;;;0.20;0.20;;;;;20.26;44.75;100072.56;5076917;28;45530;-44
2022/09/27 10:40:44;;;;;;;;;0.00;0.00;;;;;19.68;46.17;100076.53;5077233;28;45343;-57
2022/09/27 10:43:29;;;;;;;;;1.50;1.00;;;;;19.11;48.58;100081.13;5093733;27;47293;-64
2022/09/27 10:46:17;;;;;;;;;0.00;0.00;;;;;18.60;49.52;100086.59;5105894;27;45481;-58
2022/09/27 10:48:43;;;;;;;;;2.00;2.00;;;;;18.15;50.78;100081.19;5094446;27;45495;-63
2022/09/27 10:51:28;;;;;;;;;3.50;1.25;;;;;17.80;52.05;100080.69;5094793;27;45455;-57
2022/09/27 10:53:57;;;;;;;;;3.75;2.75;;;;;17.73;53.32;100095.97;5106934;27;46375;-53
2022/09/27 10:56:27;;;;;;;;;1.50;1.50;;;;;17.60;53.93;100094.94;5114567;27;45508;-45
2022/09/27 10:58:53;;;;;;;;;3.00;2.00;;;;;17.39;55.26;100103.22;5112315;27;45465;-44
2022/09/27 11:01:20;;;;;;;;;3.67;1.67;;;;;17.14;55.81;100097.63;5095990;27;45448;-43
2022/09/27 11:03:50;;;;;;;;;4.67;3.00;;;;;16.93;56.29;100099.44;5095430;27;45368;-42
2022/09/27 11:06:21;;;;;;;;;2.00;2.00;;;;;16.85;56.19;100101.50;5095467;27;45358;-41
2022/09/27 11:08:49;;;;;;;;;1.00;1.00;;;;;16.68;57.58;100088.41;5095449;27;45425;-46
2022/09/27 11:11:22;;;;;;;;;2.67;2.67;;;;;16.65;57.57;100083.47;5107823;27;46351;-42
2022/09/27 11:13:58;;;;;;;;;2.00;0.67;;;;;16.62;57.71;100093.78;5101932;27;46212;-45
2022/09/27 11:16:57;;;;;;;;;1.00;0.00;;;;;16.59;57.99;100103.06;5104872;27;45449;-50
2022/09/27 11:19:41;;;;;;;;;1.00;1.00;;;;;16.66;58.41;100092.34;5104455;27;45498;-48
2022/09/27 11:22:40;;;;;;;;;4.00;2.00;;;;;16.61;57.66;100090.25;5102515;27;45462;-47
2022/09/27 11:25:33;;;;;;;;;1.00;1.00;;;;;16.67;57.53;100092.13;5098105;27;45696;-42
2022/09/27 11:28:26;;;;;;;;;2.00;1.00;;;;;16.66;57.13;100093.16;5098803;27;45400;-43
2022/09/27 11:31:06;;;;;;;;;2.67;2.67;;;;;16.68;56.94;100092.94;5109676;27;45518;-41
2022/09/27 11:33:48;;;;;;;;;3.00;1.00;;;;;16.76;57.10;100092.81;5119496;27;45423;-42
2022/09/27 11:36:34;;;;;;;;;3.00;1.00;;;;;16.75;56.64;100095.69;5118674;27;47094;-42
2022/09/27 11:39:21;;;;;;;;;1.33;1.00;;;;;16.61;56.47;100097.50;5118153;27;45433;-43
2022/09/27 11:42:08;;;;;;;;;1.00;1.00;;;;;16.38;56.76;100103.19;5118345;27;45499;-45
2022/09/27 11:44:33;;;;;;;;;2.67;2.00;;;;;16.15;57.50;100093.59;5104662;27;46194;-48
2022/09/27 11:47:02;;;;;;;;;1.00;1.00;;;;;16.07;58.35;100093.75;5119119;27;47124;-41
2022/09/27 11:49:30;;;;;;;;;0.33;0.33;;;;;16.17;57.62;100088.00;5117391;27;45439;-44
2022/09/27 11:52:21;;;;;;;;;1.33;0.67;;;;;16.42;57.38;100064.16;5118758;27;45545;-46
2022/09/27 11:55:08;;;;;;;;;1.67;0.67;;;;;17.13;56.04;100072.63;5118434;27;45401;-50